Time;durP1;ratioP1;P1;durP2;ratioP2;P2;SDS_P1;SDS_P2;PMS_P1;PMS_P2;Temp;Humidity;BMP_temperature;BMP_pressure;BME280_temperature;BME280_humidity;BME280_pressure;Samples;Min_cycle;Max_cycle;Signal;HPM_P1;HPM_P2
2023/05/30 00:05:07;;;;;;;2.85;1.00;;;;;;;-147.53;100.00;57128.34;10431347;28;20068;-89
2023/05/30 00:10:12;;;;;;;4.90;1.38;;;;;;;-147.53;100.00;57128.34;10425706;28;20049;-88
2023/05/30 00:15:16;;;;;;;3.22;0.98;;;;;;;-147.53;100.00;57128.34;10432287;28;20434;-89
2023/05/30 00:20:18;;;;;;;1.50;0.80;;;;;;;-147.53;100.00;57128.34;10437423;28;20044;-86
2023/05/30 00:25:20;;;;;;;4.88;1.58;;;;;;;-147.53;100.00;57128.34;10416873;28;20063;-89
2023/05/30 00:30:47;;;;;;;2.10;1.00;;;;;;;-147.53;100.00;57128.34;10435878;28;20502;-88
2023/05/30 00:35:50;;;;;;;5.20;0.90;;;;;;;-147.53;100.00;57128.34;10455439;28;20057;-90
2023/05/30 00:40:56;;;;;;;2.00;0.95;;;;;;;-147.53;100.00;57128.34;10433548;28;20041;-88
2023/05/30 00:45:59;;;;;;;1.77;0.75;;;;;;;-147.53;100.00;57128.34;10460371;28;20083;-89
2023/05/30 00:51:00;;;;;;;0.93;0.60;;;;;;;-147.53;100.00;57128.34;10439083;28;20069;-88
2023/05/30 00:56:15;;;;;;;8.20;1.27;;;;;;;-147.53;100.00;57128.34;10443955;28;20055;-88
2023/05/30 01:01:24;;;;;;;3.22;1.27;;;;;;;-147.53;100.00;57128.34;10428477;28;20114;-89
2023/05/30 01:06:38;;;;;;;8.35;1.35;;;;;;;-147.53;100.00;57128.34;10433362;28;20501;-89
2023/05/30 01:12:28;;;;;;;;;;;;;;;;;;;;;
2023/05/30 01:17:54;;;;;;;0.80;0.47;;;;;;;-147.53;100.00;57128.34;10458043;28;20048;-88
2023/05/30 01:23:20;;;;;;;1.92;1.08;;;;;;;-147.53;100.00;57128.34;10456178;28;20045;-89
2023/05/30 01:28:28;;;;;;;1.58;0.73;;;;;;;-147.53;100.00;57128.34;10458850;28;20486;-89
2023/05/30 01:33:31;;;;;;;9.35;0.73;;;;;;;-147.53;100.00;57128.34;10436315;28;20061;-89
2023/05/30 01:38:34;;;;;;;1.45;0.90;;;;;;;-147.53;100.00;57128.34;10442503;28;20683;-89
2023/05/30 01:44:13;;;;;;;9.00;0.93;;;;;;;-147.53;100.00;57128.34;10428367;28;20152;-88
2023/05/30 01:50:02;;;;;;;1.00;0.73;;;;;;;-147.53;100.00;57128.34;10457834;28;20052;-88
2023/05/30 01:55:07;;;;;;;0.63;0.40;;;;;;;-147.53;100.00;57128.34;10409319;28;20067;-88
2023/05/30 02:00:23;;;;;;;1.05;0.70;;;;;;;-147.53;100.00;57128.34;10405148;28;20040;-88
2023/05/30 02:05:25;;;;;;;1.13;0.73;;;;;;;-147.53;100.00;57128.34;10436221;28;20055;-88
2023/05/30 02:10:30;;;;;;;0.68;0.68;;;;;;;-147.53;100.00;57128.34;10460322;28;20083;-88
2023/05/30 02:15:32;;;;;;;2.63;1.13;;;;;;;-147.53;100.00;57128.34;10419573;28;20049;-87
2023/05/30 02:20:36;;;;;;;4.13;1.67;;;;;;;-147.53;100.00;57128.34;10418396;28;20052;-88
2023/05/30 02:25:42;;;;;;;2.22;0.73;;;;;;;-147.53;100.00;57128.34;10441020;28;20049;-88
2023/05/30 02:30:44;;;;;;;0.93;0.60;;;;;;;-147.53;100.00;57128.34;10451709;28;20053;-87
2023/05/30 02:35:46;;;;;;;4.35;0.95;;;;;;;-147.53;100.00;57128.34;10436697;28;20124;-89
2023/05/30 02:40:48;;;;;;;2.40;0.85;;;;;;;-147.53;100.00;57128.34;10426059;28;20061;-88
2023/05/30 02:45:50;;;;;;;1.98;0.93;;;;;;;-147.53;100.00;57128.34;10414441;28;20478;-88
2023/05/30 02:50:53;;;;;;;0.93;0.68;;;;;;;-147.53;100.00;57128.34;10427825;28;20424;-88
2023/05/30 02:55:57;;;;;;;2.08;1.10;;;;;;;-147.53;100.00;57128.34;10437303;28;20143;-89
2023/05/30 03:01:28;;;;;;;0.60;0.57;;;;;;;-147.53;100.00;57128.34;10435126;28;20135;-88
2023/05/30 03:06:38;;;;;;;3.97;0.95;;;;;;;-147.53;100.00;57128.34;10434898;28;20056;-88
2023/05/30 03:12:03;;;;;;;4.85;1.10;;;;;;;-147.53;100.00;57128.34;10413476;28;20073;-88
2023/05/30 03:17:13;;;;;;;7.22;1.95;;;;;;;-147.53;100.00;57128.34;10415519;28;20053;-87
2023/05/30 03:22:26;;;;;;;;;;;;;;;;;;;;;
2023/05/30 03:27:33;;;;;;;1.75;0.77;;;;;;;-147.53;100.00;57128.34;10459396;28;20076;-89
2023/05/30 03:32:37;;;;;;;2.30;1.10;;;;;;;-147.53;100.00;57128.34;10414360;28;20053;-88
2023/05/30 03:37:38;;;;;;;4.55;1.10;;;;;;;-147.53;100.00;57128.34;10405731;28;20055;-89
2023/05/30 03:42:40;;;;;;;2.40;0.80;;;;;;;-147.53;100.00;57128.34;10413546;28;20052;-88
2023/05/30 03:47:46;;;;;;;6.30;1.50;;;;;;;-147.53;100.00;57128.34;10426928;28;20522;-89
2023/05/30 03:52:49;;;;;;;2.67;0.90;;;;;;;-147.53;100.00;57128.34;10430378;28;20060;-89
2023/05/30 03:57:52;;;;;;;3.63;1.08;;;;;;;-147.53;100.00;57128.34;10436209;28;20053;-91
2023/05/30 04:03:00;;;;;;;2.15;1.08;;;;;;;-147.53;100.00;57128.34;10408711;28;20069;-88
2023/05/30 04:08:11;;;;;;;4.43;1.00;;;;;;;-147.53;100.00;57128.34;10422536;28;20041;-89
2023/05/30 04:13:13;;;;;;;0.88;0.65;;;;;;;-147.53;100.00;57128.34;10466730;28;20048;-89
2023/05/30 04:18:51;;;;;;;4.00;1.00;;;;;;;-147.53;100.00;57128.34;10453936;28;20067;-89
2023/05/30 04:23:55;;;;;;;4.63;1.00;;;;;;;-147.53;100.00;57128.34;10427647;28;20434;-88
2023/05/30 04:28:57;;;;;;;5.78;1.55;;;;;;;-147.53;100.00;57128.34;10472462;28;20128;-87
2023/05/30 04:34:15;;;;;;;3.50;1.48;;;;;;;-147.53;100.00;57128.34;10465499;28;20056;-87
2023/05/30 04:39:20;;;;;;;2.47;1.40;;;;;;;-147.53;100.00;57128.34;10435123;28;20064;-88
2023/05/30 04:44:23;;;;;;;4.45;1.38;;;;;;;-147.53;100.00;57128.34;10422064;28;20044;-88
2023/05/30 04:49:25;;;;;;;3.58;1.17;;;;;;;-147.53;100.00;57128.34;10464484;28;20056;-88
2023/05/30 04:54:27;;;;;;;2.58;0.98;;;;;;;-147.53;100.00;57128.34;10411772;28;20056;-88
2023/05/30 04:59:29;;;;;;;2.47;1.10;;;;;;;-147.53;100.00;57128.34;10450547;28;20052;-88
2023/05/30 05:04:38;;;;;;;5.88;1.13;;;;;;;-147.53;100.00;57128.34;10437783;28;20045;-89
2023/05/30 05:09:51;;;;;;;4.53;1.23;;;;;;;-147.53;100.00;57128.34;10442141;28;20045;-87
2023/05/30 05:14:54;;;;;;;5.63;1.70;;;;;;;-147.53;100.00;57128.34;10422103;28;20065;-87
2023/05/30 05:19:56;;;;;;;9.43;2.00;;;;;;;-147.53;100.00;57128.34;10438254;28;20094;-88
2023/05/30 05:25:01;;;;;;;7.43;1.38;;;;;;;-147.53;100.00;57128.34;10452262;28;20585;-89
2023/05/30 05:30:07;;;;;;;18.02;1.90;;;;;;;-147.53;100.00;57128.34;10443159;28;20128;-89
2023/05/30 05:35:14;;;;;;;5.60;1.20;;;;;;;-147.53;100.00;57128.34;10455435;28;20065;-89
2023/05/30 05:40:20;;;;;;;3.10;1.10;;;;;;;-147.53;100.00;57128.34;10451859;28;20514;-90
2023/05/30 05:50:54;;;;;;;;;;;;;;;-147.53;100.00;57128.34;10438733;28;20047;-89
2023/05/30 05:56:07;;;;;;;8.80;1.13;;;;;;;-147.53;100.00;57128.34;10440721;28;20333;-89
2023/05/30 06:01:12;;;;;;;3.50;0.85;;;;;;;-147.53;100.00;57128.34;10428991;28;20111;-90
2023/05/30 06:06:23;;;;;;;3.15;1.00;;;;;;;-147.53;100.00;57128.34;10444450;28;20072;-90
2023/05/30 06:11:29;;;;;;;4.32;0.93;;;;;;;-147.53;100.00;57128.34;10462682;28;20059;-89
2023/05/30 06:16:31;;;;;;;1.02;0.73;;;;;;;-147.53;100.00;57128.34;10444439;28;20060;-91
2023/05/30 06:21:33;;;;;;;0.98;0.80;;;;;;;-147.53;100.00;57128.34;10447743;28;20139;-89
2023/05/30 06:26:35;;;;;;;1.50;0.80;;;;;;;-147.53;100.00;57128.34;10480365;28;20059;-90
2023/05/30 06:31:36;;;;;;;2.25;1.08;;;;;;;-147.53;100.00;57128.34;10447270;28;20063;-91
2023/05/30 06:36:38;;;;;;;1.83;0.95;;;;;;;-147.53;100.00;57128.34;10462726;28;20114;-89
2023/05/30 06:41:48;;;;;;;2.97;0.68;;;;;;;-147.53;100.00;57128.34;10454665;28;20063;-88
2023/05/30 06:47:15;;;;;;;1.50;0.80;;;;;;;-147.53;100.00;57128.34;10439454;28;20060;-89
2023/05/30 06:52:18;;;;;;;2.75;1.05;;;;;;;-147.53;100.00;57128.34;10427427;28;20490;-91
2023/05/30 06:57:21;;;;;;;2.85;0.95;;;;;;;-147.53;100.00;57128.34;10450436;28;20114;-89
2023/05/30 07:02:23;;;;;;;3.60;1.13;;;;;;;-147.53;100.00;57128.34;10455872;28;20116;-90
2023/05/30 07:07:25;;;;;;;2.67;0.68;;;;;;;-147.53;100.00;57128.34;10439590;28;20052;-89
2023/05/30 07:12:27;;;;;;;1.33;0.68;;;;;;;-147.53;100.00;57128.34;10454076;28;20129;-90
2023/05/30 07:17:29;;;;;;;2.65;1.58;;;;;;;-147.53;100.00;57128.34;10447448;28;20059;-90
2023/05/30 07:22:31;;;;;;;1.77;0.57;;;;;;;-147.53;100.00;57128.34;10448709;28;20087;-89
2023/05/30 07:27:47;;;;;;;1.90;0.70;;;;;;;-147.53;100.00;57128.34;10447659;28;20152;-89
2023/05/30 07:33:08;;;;;;;1.35;0.80;;;;;;;-147.53;100.00;57128.34;10440957;28;20491;-90
2023/05/30 07:38:11;;;;;;;2.97;0.90;;;;;;;-147.53;100.00;57128.34;10477547;28;20061;-89
2023/05/30 09:37:17;;;;;;;1.38;0.77;;;;;;;-147.53;100.00;57128.34;11294659;23;20524;-89
2023/05/30 09:42:24;;;;;;;1.52;0.60;;;;;;;-147.53;100.00;57128.34;10303738;28;20105;-89
2023/05/30 09:47:44;;;;;;;1.70;0.70;;;;;;;-147.53;100.00;57128.34;10278965;28;20051;-88
2023/05/30 09:52:55;;;;;;;1.25;0.50;;;;;;;-147.53;100.00;57128.34;10287988;28;20051;-88
2023/05/30 09:59:03;;;;;;;;;;;;;;;;;;;;;
2023/05/30 10:26:11;;;;;;;1.52;0.80;;;;;;;-147.53;100.00;57128.34;9812035;30;20127;-87
2023/05/30 10:32:19;;;;;;;1.25;0.65;;;;;;;-147.53;100.00;57128.34;9804773;30;20113;-88
2023/05/30 10:38:47;;;;;;;0.85;0.50;;;;;;;-147.53;100.00;57128.34;9784255;29;20075;-88
2023/05/30 10:44:54;;;;;;;2.05;0.80;;;;;;;-147.53;100.00;57128.34;9960325;29;20101;-88
2023/05/30 10:50:03;;;;;;;0.77;0.57;;;;;;;-147.53;100.00;57128.34;10264312;28;20057;-88
2023/05/30 10:55:11;;;;;;;3.47;1.00;;;;;;;-147.53;100.00;57128.34;10273217;28;20169;-88
2023/05/30 11:00:15;;;;;;;2.45;0.90;;;;;;;-147.53;100.00;57128.34;10253489;28;20058;-89
2023/05/30 11:05:27;;;;;;;1.45;0.77;;;;;;;-147.53;100.00;57128.34;10286925;28;20051;-87
2023/05/30 11:10:30;;;;;;;4.25;0.82;;;;;;;-147.53;100.00;57128.34;10269327;28;20372;-88
2023/05/30 11:15:35;;;;;;;2.33;1.20;;;;;;;-147.53;100.00;57128.34;10255222;28;20143;-88
2023/05/30 11:20:51;;;;;;;61.55;30.65;;;;;;;-147.53;100.00;57128.34;10272331;28;20082;-88
2023/05/30 11:25:56;;;;;;;20.75;9.27;;;;;;;-147.53;100.00;57128.34;10246400;28;20057;-88
2023/05/30 11:30:58;;;;;;;147.07;61.90;;;;;;;-147.53;100.00;57128.34;10286969;28;20648;-89
2023/05/30 11:36:02;;;;;;;26.48;12.23;;;;;;;-147.53;100.00;57128.34;10270752;28;20138;-88
2023/05/30 11:41:04;;;;;;;16.23;7.53;;;;;;;-147.53;100.00;57128.34;10285927;28;20082;-88
2023/05/30 11:46:05;;;;;;;38.17;20.00;;;;;;;-147.53;100.00;57128.34;10250572;28;20050;-87
2023/05/30 11:51:08;;;;;;;7.38;2.75;;;;;;;-147.53;100.00;57128.34;10273114;28;20133;-88
2023/05/30 11:56:11;;;;;;;2.80;1.45;;;;;;;-147.53;100.00;57128.34;10258832;28;20492;-88
2023/05/30 12:01:13;;;;;;;1.08;0.65;;;;;;;-147.53;100.00;57128.34;10269577;28;20070;-88
2023/05/30 12:06:15;;;;;;;0.70;0.52;;;;;;;-147.53;100.00;57128.34;10260415;28;20082;-90
2023/05/30 12:11:16;;;;;;;1.08;0.65;;;;;;;-147.53;100.00;57128.34;10264360;28;20102;-88
2023/05/30 12:16:18;;;;;;;3.58;0.90;;;;;;;-147.53;100.00;57128.34;10289937;28;20057;-88
2023/05/30 12:21:20;;;;;;;0.77;0.63;;;;;;;-147.53;100.00;57128.34;10276225;28;20063;-88
2023/05/30 12:27:04;;;;;;;;;;;;;;;;;;;;;
2023/05/30 12:33:05;;;;;;;1.95;1.02;;;;;;;-147.53;100.00;57128.34;10880172;23;20062;-90
2023/05/30 12:38:18;;;;;;;1.33;0.80;;;;;;;-147.53;100.00;57128.34;10329568;28;20662;-90
2023/05/30 12:43:27;;;;;;;5.50;1.10;;;;;;;-147.53;100.00;57128.34;10312185;28;20054;-90
2023/05/30 12:48:30;;;;;;;0.70;0.57;;;;;;;-147.53;100.00;57128.34;10309542;28;20054;-90
2023/05/30 12:53:33;;;;;;;1.30;0.68;;;;;;;-147.53;100.00;57128.34;10301522;28;20102;-89
2023/05/30 12:58:57;;;;;;;0.98;0.63;;;;;;;-147.53;100.00;57128.34;10288554;28;20050;-88
2023/05/30 13:04:53;;;;;;;3.42;0.80;;;;;;;-147.53;100.00;57128.34;10319608;28;20054;-89
2023/05/30 13:16:35;;;;;;;0.63;0.63;;;;;;;-147.53;100.00;57128.34;6707048;26;20429;-89
2023/05/30 13:21:52;;;;;;;1.77;0.93;;;;;;;-147.53;100.00;57128.34;10311857;28;20034;-87
2023/05/30 13:26:53;;;;;;;0.95;0.60;;;;;;;-147.53;100.00;57128.34;10337398;28;20051;-87
2023/05/30 13:31:55;;;;;;;2.30;0.60;;;;;;;-147.53;100.00;57128.34;10322988;28;20049;-88
2023/05/30 13:36:57;;;;;;;0.80;0.47;;;;;;;-147.53;100.00;57128.34;10333518;28;20049;-88
2023/05/30 13:41:59;;;;;;;3.25;0.70;;;;;;;-147.53;100.00;57128.34;10334463;28;20417;-87
2023/05/30 13:47:52;;;;;;;2.83;0.52;;;;;;;-147.53;100.00;57128.34;10325663;28;20408;-87
2023/05/30 13:52:54;;;;;;;0.55;0.40;;;;;;;-147.53;100.00;57128.34;10315118;28;20081;-88
2023/05/30 13:57:57;;;;;;;0.35;0.35;;;;;;;-147.53;100.00;57128.34;10305969;28;20050;-89
2023/05/30 14:03:00;;;;;;;1.17;0.70;;;;;;;-147.53;100.00;57128.34;10314233;28;20050;-87
2023/05/30 14:08:03;;;;;;;1.95;0.80;;;;;;;-147.53;100.00;57128.34;10323815;28;20539;-89
2023/05/30 14:13:08;;;;;;;0.90;0.60;;;;;;;-147.53;100.00;57128.34;10321352;28;20070;-88
2023/05/30 14:18:10;;;;;;;1.23;0.52;;;;;;;-147.53;100.00;57128.34;10315578;28;20605;-87
2023/05/30 14:23:13;;;;;;;1.05;0.68;;;;;;;-147.53;100.00;57128.34;10324719;28;20084;-88
2023/05/30 14:28:15;;;;;;;2.95;0.80;;;;;;;-147.53;100.00;57128.34;10323017;28;20076;-88
2023/05/30 14:33:19;;;;;;;0.47;0.47;;;;;;;-147.53;100.00;57128.34;10320159;28;20462;-87
2023/05/30 14:38:21;;;;;;;2.45;0.68;;;;;;;-147.53;100.00;57128.34;10318870;28;20073;-87
2023/05/30 14:43:25;;;;;;;2.03;0.70;;;;;;;-147.53;100.00;57128.34;10305689;28;20409;-88
2023/05/30 14:48:30;;;;;;;1.42;0.68;;;;;;;-147.53;100.00;57128.34;10327107;28;20593;-87
2023/05/30 14:53:37;;;;;;;1.10;0.45;;;;;;;-147.53;100.00;57128.34;10319646;28;20445;-87
2023/05/30 14:58:39;;;;;;;1.15;0.60;;;;;;;-147.53;100.00;57128.34;10293574;28;20168;-87
2023/05/30 15:03:42;;;;;;;1.42;0.88;;;;;;;-147.53;100.00;57128.34;10304450;28;20426;-89
2023/05/30 15:08:50;;;;;;;3.25;1.10;;;;;;;-147.53;100.00;57128.34;10306127;28;20057;-87
2023/05/30 15:13:52;;;;;;;3.05;0.90;;;;;;;-147.53;100.00;57128.34;10300727;28;20109;-89
2023/05/30 15:18:57;;;;;;;0.90;0.60;;;;;;;-147.53;100.00;57128.34;10310191;28;20052;-88
2023/05/30 15:30:23;;;;;;;1.38;0.80;;;;;;;-147.53;100.00;57128.34;10278097;28;20058;-87
2023/05/30 15:35:33;;;;;;;1.67;0.95;;;;;;;-147.53;100.00;57128.34;10271641;28;20050;-87
2023/05/30 15:40:36;;;;;;;0.85;0.50;;;;;;;-147.53;100.00;57128.34;10292139;28;20054;-86
2023/05/30 15:45:43;;;;;;;0.55;0.55;;;;;;;-147.53;100.00;57128.34;10248066;28;20058;-88
2023/05/30 15:50:50;;;;;;;2.63;0.80;;;;;;;-147.53;100.00;57128.34;10307942;28;20593;-87
2023/05/30 15:56:02;;;;;;;1.23;0.90;;;;;;;-147.53;100.00;57128.34;10282773;28;20085;-89
2023/05/30 16:01:12;;;;;;;1.02;0.68;;;;;;;-147.53;100.00;57128.34;10277650;28;20129;-86
2023/05/30 16:06:13;;;;;;;1.50;0.98;;;;;;;-147.53;100.00;57128.34;10286882;28;20055;-86
2023/05/30 16:11:16;;;;;;;1.90;0.73;;;;;;;-147.53;100.00;57128.34;10278217;28;20132;-85
2023/05/30 16:16:17;;;;;;;0.82;0.63;;;;;;;-147.53;100.00;57128.34;10290786;28;20098;-83
2023/05/30 16:21:20;;;;;;;1.95;0.95;;;;;;;-147.53;100.00;57128.34;10293436;28;20059;-85
2023/05/30 16:26:21;;;;;;;1.75;0.95;;;;;;;-147.53;100.00;57128.34;10299142;28;20055;-86
2023/05/30 16:31:23;;;;;;;1.73;1.05;;;;;;;-147.53;100.00;57128.34;10303155;28;20156;-86
2023/05/30 16:36:27;;;;;;;4.68;1.58;;;;;;;-147.53;100.00;57128.34;10304372;28;20149;-85
2023/05/30 16:41:29;;;;;;;2.08;0.70;;;;;;;-147.53;100.00;57128.34;10299755;28;20150;-86
2023/05/30 16:46:31;;;;;;;2.50;0.88;;;;;;;-147.53;100.00;57128.34;10299475;28;20461;-86
2023/05/30 16:51:50;;;;;;;1.63;0.73;;;;;;;-147.53;100.00;57128.34;10288017;28;20427;-87
2023/05/30 16:57:19;;;;;;;2.25;0.90;;;;;;;-147.53;100.00;57128.34;10305770;28;20046;-87
2023/05/30 17:02:35;;;;;;;1.92;0.90;;;;;;;-147.53;100.00;57128.34;10315349;28;20050;-84
2023/05/30 17:07:41;;;;;;;1.67;0.90;;;;;;;-147.53;100.00;57128.34;10310865;28;20058;-85
2023/05/30 17:12:42;;;;;;;2.17;0.80;;;;;;;-147.53;100.00;57128.34;10317419;28;20038;-87
2023/05/30 17:17:44;;;;;;;1.63;0.90;;;;;;;-147.53;100.00;57128.34;10351270;28;20104;-85
2023/05/30 17:22:45;;;;;;;4.30;1.10;;;;;;;-147.53;100.00;57128.34;10336206;28;20070;-84
2023/05/30 17:27:50;;;;;;;6.82;1.27;;;;;;;-147.53;100.00;57128.34;10317984;28;20066;-83
2023/05/30 17:32:52;;;;;;;2.22;1.13;;;;;;;-147.53;100.00;57128.34;10337616;28;20042;-86
2023/05/30 17:37:54;;;;;;;3.60;1.38;;;;;;;-147.53;100.00;57128.34;10335537;28;20050;-83
2023/05/30 17:42:56;;;;;;;1.83;0.93;;;;;;;-147.53;100.00;57128.34;10352720;28;20121;-84
2023/05/30 17:47:57;;;;;;;2.53;1.30;;;;;;;-147.53;100.00;57128.34;10331828;28;20043;-84
2023/05/30 17:53:00;;;;;;;2.83;1.08;;;;;;;-147.53;100.00;57128.34;10343954;28;20081;-85
2023/05/30 17:58:05;;;;;;;2.13;0.88;;;;;;;-147.53;100.00;57128.34;10313696;28;20125;-84
2023/05/30 18:03:07;;;;;;;9.85;1.30;;;;;;;-147.53;100.00;57128.34;10321456;28;20053;-84
2023/05/30 18:08:14;;;;;;;8.27;1.20;;;;;;;-147.53;100.00;57128.34;10352467;28;20123;-86
2023/05/30 18:13:16;;;;;;;6.70;1.30;;;;;;;-147.53;100.00;57128.34;10342661;28;20068;-85
2023/05/30 18:18:18;;;;;;;4.25;1.38;;;;;;;-147.53;100.00;57128.34;10347314;28;20065;-83
2023/05/30 18:23:20;;;;;;;3.28;1.23;;;;;;;-147.53;100.00;57128.34;10336052;28;20050;-84
2023/05/30 18:28:26;;;;;;;7.35;1.63;;;;;;;-147.53;100.00;57128.34;10319062;28;20050;-84
2023/05/30 18:33:34;;;;;;;8.88;1.65;;;;;;;-147.53;100.00;57128.34;10317547;28;20054;-84
2023/05/30 18:38:44;;;;;;;2.90;1.40;;;;;;;-147.53;100.00;57128.34;10338652;28;20042;-84
2023/05/30 18:43:49;;;;;;;6.07;1.33;;;;;;;-147.53;100.00;57128.34;10327746;28;20046;-84
2023/05/30 18:48:50;;;;;;;4.05;1.45;;;;;;;-147.53;100.00;57128.34;10353388;28;20200;-85
2023/05/30 18:53:55;;;;;;;5.80;1.38;;;;;;;-147.53;100.00;57128.34;10334278;28;20097;-84
2023/05/30 18:59:00;;;;;;;4.50;1.50;;;;;;;-147.53;100.00;57128.34;10323528;28;20112;-86
2023/05/30 19:16:03;;;;;;;;;;;;;;;-147.53;100.00;57128.34;10351726;28;20084;-84
2023/05/30 19:21:07;;;;;;;2.88;1.30;;;;;;;-147.53;100.00;57128.34;10359845;28;19921;-84
2023/05/30 19:26:10;;;;;;;3.75;1.38;;;;;;;-147.53;100.00;57128.34;10362912;28;20108;-84
2023/05/30 19:31:20;;;;;;;2.55;1.13;;;;;;;-147.53;100.00;57128.34;10349689;28;20062;-85
2023/05/30 19:36:26;;;;;;;3.90;1.58;;;;;;;-147.53;100.00;57128.34;10353705;28;20394;-85
2023/05/30 19:41:27;;;;;;;2.28;1.08;;;;;;;-147.53;100.00;57128.34;10337820;28;20085;-84
2023/05/30 19:46:30;;;;;;;7.50;1.70;;;;;;;-147.53;100.00;57128.34;10341474;28;20042;-85
2023/05/30 19:51:31;;;;;;;2.30;1.08;;;;;;;-147.53;100.00;57128.34;10322893;28;20057;-86
2023/05/30 19:56:33;;;;;;;4.38;1.30;;;;;;;-147.53;100.00;57128.34;10366198;28;20056;-85
2023/05/30 20:01:35;;;;;;;4.30;1.67;;;;;;;-147.53;100.00;57128.34;10336880;28;20160;-84
2023/05/30 20:06:36;;;;;;;2.65;1.27;;;;;;;-147.53;100.00;57128.34;10342909;28;20073;-85
2023/05/30 20:11:38;;;;;;;4.75;1.55;;;;;;;-147.53;100.00;57128.34;10353884;28;20570;-85
2023/05/30 20:16:40;;;;;;;3.28;1.30;;;;;;;-147.53;100.00;57128.34;10352409;28;20054;-84
2023/05/30 20:21:41;;;;;;;5.53;1.38;;;;;;;-147.53;100.00;57128.34;10339240;28;20050;-85
2023/05/30 20:26:43;;;;;;;4.93;1.10;;;;;;;-147.53;100.00;57128.34;10366350;28;20050;-85
2023/05/30 20:31:45;;;;;;;3.60;1.27;;;;;;;-147.53;100.00;57128.34;10362001;28;20074;-85
2023/05/30 20:36:46;;;;;;;4.45;1.63;;;;;;;-147.53;100.00;57128.34;10364755;28;20073;-85
2023/05/30 20:41:54;;;;;;;3.33;1.30;;;;;;;-147.53;100.00;57128.34;10361096;28;20049;-85
2023/05/30 20:47:01;;;;;;;4.20;1.75;;;;;;;-147.53;100.00;57128.34;10296262;28;20141;-86
2023/05/30 20:52:03;;;;;;;4.88;1.77;;;;;;;-147.53;100.00;57128.34;10319389;28;20039;-85
2023/05/30 20:57:15;;;;;;;3.47;1.40;;;;;;;-147.53;100.00;57128.34;10319516;28;20050;-87
2023/05/30 21:02:16;;;;;;;2.70;1.25;;;;;;;-147.53;100.00;57128.34;10341813;28;20065;-86
2023/05/30 21:07:18;;;;;;;2.55;1.20;;;;;;;-147.53;100.00;57128.34;10343696;28;20109;-85
2023/05/30 21:12:20;;;;;;;5.20;1.90;;;;;;;-147.53;100.00;57128.34;10347881;28;20061;-85
2023/05/30 21:17:21;;;;;;;3.65;1.63;;;;;;;-147.53;100.00;57128.34;10343027;28;20117;-85
2023/05/30 21:22:23;;;;;;;4.40;1.48;;;;;;;-147.53;100.00;57128.34;10353694;28;20112;-87
2023/05/30 21:27:25;;;;;;;3.15;1.30;;;;;;;-147.53;100.00;57128.34;10349861;28;20049;-85
2023/05/30 21:32:26;;;;;;;7.10;1.58;;;;;;;-147.53;100.00;57128.34;10349648;28;20149;-85
2023/05/30 21:37:28;;;;;;;4.10;1.52;;;;;;;-147.53;100.00;57128.34;10338964;28;20064;-85
2023/05/30 21:42:30;;;;;;;3.20;1.02;;;;;;;-147.53;100.00;57128.34;10340236;28;20043;-85
2023/05/30 21:47:35;;;;;;;8.95;1.50;;;;;;;-147.53;100.00;57128.34;10317431;28;20109;-87
2023/05/30 21:52:37;;;;;;;3.42;1.10;;;;;;;-147.53;100.00;57128.34;10338314;28;20475;-85
2023/05/30 21:57:38;;;;;;;4.57;1.15;;;;;;;-147.53;100.00;57128.34;10336496;28;20466;-84
2023/05/30 22:02:40;;;;;;;1.92;0.82;;;;;;;-147.53;100.00;57128.34;10349528;28;20078;-85
2023/05/30 22:07:42;;;;;;;1.58;1.17;;;;;;;-147.53;100.00;57128.34;10343039;28;20085;-85
2023/05/30 22:12:44;;;;;;;2.17;1.17;;;;;;;-147.53;100.00;57128.34;10344632;28;20580;-87
2023/05/30 22:17:46;;;;;;;3.20;1.40;;;;;;;-147.53;100.00;57128.34;10317205;28;20058;-85
2023/05/30 22:22:47;;;;;;;3.58;1.50;;;;;;;-147.53;100.00;57128.34;10344087;28;20054;-84
2023/05/30 22:27:49;;;;;;;9.20;1.85;;;;;;;-147.53;100.00;57128.34;10340352;28;20046;-84
2023/05/30 22:32:51;;;;;;;6.47;1.75;;;;;;;-147.53;100.00;57128.34;10304613;28;20129;-86
2023/05/30 22:37:53;;;;;;;3.75;1.33;;;;;;;-147.53;100.00;57128.34;10316859;28;20054;-85
2023/05/30 22:42:54;;;;;;;3.03;1.45;;;;;;;-147.53;100.00;57128.34;10324010;28;20401;-85
2023/05/30 22:47:56;;;;;;;3.55;1.30;;;;;;;-147.53;100.00;57128.34;10342154;28;20767;-85
2023/05/30 22:52:58;;;;;;;2.80;1.23;;;;;;;-147.53;100.00;57128.34;10340595;28;20109;-86
2023/05/30 22:57:59;;;;;;;2.60;1.17;;;;;;;-147.53;100.00;57128.34;10324898;28;20050;-85
2023/05/30 23:03:01;;;;;;;2.10;1.02;;;;;;;-147.53;100.00;57128.34;10343968;28;20046;-85
2023/05/30 23:08:03;;;;;;;4.55;1.27;;;;;;;-147.53;100.00;57128.34;10342708;28;20050;-86
2023/05/30 23:13:05;;;;;;;3.08;1.13;;;;;;;-147.53;100.00;57128.34;10342639;28;20050;-84
2023/05/30 23:18:06;;;;;;;2.92;1.27;;;;;;;-147.53;100.00;57128.34;10345049;28;20050;-85
2023/05/30 23:23:08;;;;;;;4.32;1.92;;;;;;;-147.53;100.00;57128.34;10344218;28;20511;-85
2023/05/30 23:28:10;;;;;;;3.55;1.33;;;;;;;-147.53;100.00;57128.34;10342273;28;20050;-86
2023/05/30 23:33:12;;;;;;;3.08;1.50;;;;;;;-147.53;100.00;57128.34;10339405;28;20154;-86
2023/05/30 23:38:13;;;;;;;2.97;0.90;;;;;;;-147.53;100.00;57128.34;10343662;28;20058;-84
2023/05/30 23:43:15;;;;;;;6.97;1.38;;;;;;;-147.53;100.00;57128.34;10345377;28;20050;-84
2023/05/30 23:48:16;;;;;;;1.75;1.23;;;;;;;-147.53;100.00;57128.34;10346020;28;20062;-85
2023/05/30 23:53:18;;;;;;;2.83;1.33;;;;;;;-147.53;100.00;57128.34;10345769;28;20049;-85
2023/05/30 23:58:20;;;;;;;2.00;1.02;;;;;;;-147.53;100.00;57128.34;10345357;28;20054;-85
